createdAt,value
2019-01-12T00:00:13.340Z,5.50
2019-01-12T00:02:41.762Z,5.60
2019-01-12T00:05:10.293Z,5.60
2019-01-12T00:07:38.690Z,5.50
2019-01-12T00:10:08.847Z,5.60
2019-01-12T00:12:49.571Z,5.50
2019-01-12T00:15:17.974Z,5.50
2019-01-12T00:17:46.369Z,5.50
2019-01-12T00:20:15.011Z,5.50
2019-01-12T00:22:43.411Z,5.50
2019-01-12T00:25:12.009Z,5.50
2019-01-12T00:27:40.465Z,5.60
2019-01-12T00:30:12.002Z,5.50
2019-01-12T00:32:43.638Z,5.50
2019-01-12T00:35:12.445Z,5.50
2019-01-12T00:37:40.832Z,5.40
2019-01-12T00:40:09.577Z,5.40
2019-01-12T00:42:37.984Z,5.50
2019-01-12T00:45:12.091Z,5.40
2019-01-12T00:47:40.553Z,5.40
2019-01-12T00:50:12.001Z,5.40
2019-01-12T00:52:40.389Z,5.40
2019-01-12T00:55:09.018Z,5.40
2019-01-12T00:57:37.650Z,5.40
2019-01-12T01:00:11.721Z,5.30
2019-01-12T01:02:40.358Z,5.40
2019-01-12T01:05:09.511Z,5.40
2019-01-12T01:07:38.060Z,5.30
2019-01-12T01:10:09.537Z,5.30
2019-01-12T01:12:38.175Z,5.40
2019-01-12T01:15:09.151Z,5.40
2019-01-12T01:17:37.568Z,5.30
2019-01-12T01:20:08.474Z,5.40
2019-01-12T01:22:36.957Z,5.40
2019-01-12T01:25:07.340Z,5.40
2019-01-12T01:27:35.745Z,5.30
2019-01-12T01:30:06.963Z,5.30
2019-01-12T01:32:35.597Z,5.30
2019-01-12T01:35:05.342Z,5.30
2019-01-12T01:37:33.739Z,5.30
2019-01-12T01:40:02.141Z,5.20
2019-01-12T01:42:30.543Z,5.20
2019-01-12T01:44:58.937Z,5.20
2019-01-12T01:47:27.394Z,5.20
2019-01-12T01:49:55.772Z,5.20
2019-01-12T01:52:24.174Z,5.20
2019-01-12T01:54:53.127Z,5.10
2019-01-12T01:57:21.750Z,5.10
2019-01-12T01:59:50.138Z,5.10
2019-01-12T02:02:18.782Z,5.10
2019-01-12T02:04:47.179Z,5.10
2019-01-12T02:07:15.573Z,5.10
2019-01-12T02:09:43.974Z,5.10
2019-01-12T02:12:12.377Z,5.10
2019-01-12T02:14:40.773Z,5.10
2019-01-12T02:17:09.182Z,5.10
2019-01-12T02:19:37.585Z,5.10
2019-01-12T02:22:06.401Z,5.10
2019-01-12T02:24:35.042Z,5.10
2019-01-12T02:27:03.686Z,5.10
2019-01-12T02:29:32.082Z,5.10
2019-01-12T02:32:00.482Z,5.10
2019-01-12T02:34:28.886Z,5.10
2019-01-12T02:36:57.297Z,5.10
2019-01-12T02:39:26.006Z,5.10
2019-01-12T02:41:54.417Z,5.00
2019-01-12T02:44:22.809Z,5.00
2019-01-12T02:46:51.457Z,5.00
2019-01-12T02:49:19.855Z,5.00
2019-01-12T02:51:48.279Z,5.00
2019-01-12T02:54:16.677Z,5.00
2019-01-12T02:56:45.078Z,5.00
2019-01-12T02:59:13.477Z,5.00
2019-01-12T03:01:41.878Z,5.00
2019-01-12T03:04:10.349Z,5.00
2019-01-12T03:06:38.846Z,5.00
2019-01-12T03:09:07.741Z,5.00
2019-01-12T03:11:36.137Z,5.00
2019-01-12T03:14:04.725Z,5.00
2019-01-12T03:16:33.110Z,5.00
2019-01-12T03:19:01.515Z,5.00
2019-01-12T03:21:29.913Z,5.00
2019-01-12T03:23:58.320Z,5.00
2019-01-12T03:26:26.725Z,5.00
2019-01-12T03:28:55.118Z,4.90
2019-01-12T03:31:23.520Z,5.00
2019-01-12T03:33:51.907Z,4.90
2019-01-12T03:36:20.304Z,5.00
2019-01-12T03:38:48.701Z,5.00
2019-01-12T03:41:17.098Z,5.00
2019-01-12T03:43:45.507Z,5.00
2019-01-12T03:46:13.897Z,5.00
2019-01-12T03:48:42.369Z,5.00
2019-01-12T03:51:10.757Z,5.00
2019-01-12T03:53:39.161Z,5.00
2019-01-12T03:56:07.553Z,4.90
2019-01-12T03:58:35.954Z,4.90
2019-01-12T04:01:04.409Z,4.90
2019-01-12T04:03:33.063Z,5.00
2019-01-12T04:06:01.453Z,4.90
2019-01-12T04:08:29.857Z,4.90
2019-01-12T04:10:58.257Z,4.90
2019-01-12T04:13:26.658Z,4.90
2019-01-12T04:15:55.126Z,4.90
2019-01-12T04:18:23.530Z,4.90
2019-01-12T04:20:52.166Z,4.90
2019-01-12T04:23:20.566Z,4.90
2019-01-12T04:25:48.962Z,4.80
2019-01-12T04:28:17.377Z,4.90
2019-01-12T04:30:45.782Z,4.90
2019-01-12T04:33:14.165Z,4.90
2019-01-12T04:35:42.561Z,4.90
2019-01-12T04:38:10.962Z,4.90
2019-01-12T04:40:39.354Z,4.80
2019-01-12T04:43:07.761Z,4.90
2019-01-12T04:45:36.159Z,4.90
2019-01-12T04:48:04.694Z,4.90
2019-01-12T04:50:33.094Z,4.90
2019-01-12T04:53:01.487Z,4.90
2019-01-12T04:55:29.887Z,4.90
2019-01-12T04:57:58.295Z,4.80
2019-01-12T05:00:26.694Z,4.90
2019-01-12T05:02:55.099Z,4.80
2019-01-12T05:05:23.492Z,4.80
2019-01-12T05:07:51.881Z,4.80
2019-01-12T05:10:20.304Z,4.80
2019-01-12T05:12:48.703Z,4.80
2019-01-12T05:15:17.141Z,4.80
2019-01-12T05:17:45.530Z,4.70
2019-01-12T05:20:17.092Z,4.80
2019-01-12T05:22:45.932Z,4.80
2019-01-12T05:25:14.338Z,4.80
2019-01-12T05:27:42.732Z,4.80
2019-01-12T05:30:14.142Z,4.70
2019-01-12T05:32:42.547Z,4.70
2019-01-12T05:35:11.028Z,4.70
2019-01-12T05:37:39.423Z,4.70
2019-01-12T05:40:09.021Z,4.70
2019-01-12T05:42:37.558Z,4.70
2019-01-12T05:45:11.014Z,4.80
2019-01-12T05:47:39.418Z,4.80
2019-01-12T05:50:10.418Z,4.80
2019-01-12T05:52:39.118Z,4.80
2019-01-12T05:55:08.365Z,4.80
2019-01-12T05:57:37.015Z,4.70
2019-01-12T06:00:17.085Z,4.70
2019-01-12T06:02:45.485Z,4.70
2019-01-12T06:05:13.878Z,4.70
2019-01-12T06:07:42.274Z,4.70
2019-01-12T06:10:12.297Z,4.70
2019-01-12T06:12:40.697Z,4.70
2019-01-12T06:15:10.633Z,4.70
2019-01-12T06:17:39.099Z,4.60
2019-01-12T06:20:15.458Z,4.70
2019-01-12T06:22:44.153Z,4.60
2019-01-12T06:25:12.541Z,4.60
2019-01-12T06:27:40.937Z,4.60
2019-01-12T06:30:12.570Z,4.60
2019-01-12T06:32:41.017Z,4.60
2019-01-12T06:35:09.661Z,4.60
2019-01-12T06:37:38.046Z,4.70
2019-01-12T06:40:09.545Z,4.70
2019-01-12T06:42:37.948Z,4.60
2019-01-12T06:45:09.774Z,4.70
2019-01-12T06:47:38.186Z,4.70
2019-01-12T06:50:10.080Z,4.60
2019-01-12T06:52:38.719Z,4.60
2019-01-12T06:55:09.458Z,4.60
2019-01-12T06:57:37.845Z,4.60
2019-01-12T07:00:09.648Z,4.60
2019-01-12T07:02:38.040Z,4.50
2019-01-12T07:05:07.482Z,4.60
2019-01-12T07:07:35.869Z,4.50
2019-01-12T07:10:07.274Z,4.60
2019-01-12T07:12:35.673Z,4.50
2019-01-12T07:15:06.233Z,4.40
2019-01-12T07:17:37.561Z,4.40
2019-01-12T07:20:09.176Z,4.40
2019-01-12T07:22:37.807Z,4.30
2019-01-12T07:25:06.683Z,4.40
2019-01-12T07:27:35.083Z,4.30
2019-01-12T07:30:05.030Z,4.30
2019-01-12T07:32:33.414Z,4.30
2019-01-12T07:35:01.810Z,4.40
2019-01-12T07:37:30.218Z,4.30
2019-01-12T07:39:58.609Z,4.40
2019-01-12T07:42:27.023Z,4.30
2019-01-12T07:44:55.410Z,4.30
2019-01-12T07:47:23.802Z,4.30
2019-01-12T07:49:52.199Z,4.30
2019-01-12T07:52:20.590Z,4.30
2019-01-12T07:54:48.985Z,4.30
2019-01-12T07:57:17.610Z,4.30
2019-01-12T07:59:46.245Z,4.30
2019-01-12T08:02:14.640Z,4.30
2019-01-12T08:04:43.101Z,4.30
2019-01-12T08:07:11.500Z,4.30
2019-01-12T08:09:39.889Z,4.20
2019-01-12T08:12:08.281Z,4.20
2019-01-12T08:14:36.685Z,4.20
2019-01-12T08:17:15.128Z,4.30
2019-01-12T08:19:43.525Z,4.30
2019-01-12T08:22:11.909Z,4.30
2019-01-12T08:24:40.341Z,4.30
2019-01-12T08:27:08.765Z,4.30
2019-01-12T08:29:37.171Z,4.30
2019-01-12T08:32:05.606Z,4.30
2019-01-12T08:34:34.015Z,4.20
2019-01-12T08:37:02.397Z,4.20
2019-01-12T08:39:31.022Z,4.20
2019-01-12T08:41:59.413Z,4.20
2019-01-12T08:44:28.039Z,4.30
2019-01-12T08:46:56.437Z,4.20
2019-01-12T08:49:24.869Z,4.20
2019-01-12T08:51:53.305Z,4.20
2019-01-12T08:54:21.697Z,4.20
2019-01-12T08:56:50.108Z,4.30
2019-01-12T08:59:18.494Z,4.20
2019-01-12T09:01:46.895Z,4.30
2019-01-12T09:04:15.291Z,4.30
2019-01-12T09:06:43.680Z,4.30
2019-01-12T09:09:12.070Z,4.20
2019-01-12T09:11:40.490Z,4.30
2019-01-12T09:14:08.886Z,4.30
2019-01-12T09:16:37.282Z,4.40
2019-01-12T09:19:05.995Z,4.40
2019-01-12T09:21:34.425Z,4.40
2019-01-12T09:24:02.877Z,4.40
2019-01-12T09:26:31.289Z,4.50
2019-01-12T09:28:59.700Z,4.50
2019-01-12T09:31:28.093Z,4.60
2019-01-12T09:33:56.494Z,4.70
2019-01-12T09:36:24.906Z,4.70
2019-01-12T09:38:54.121Z,4.70
2019-01-12T09:41:22.789Z,4.60
2019-01-12T09:43:51.194Z,4.60
2019-01-12T09:46:19.641Z,4.50
2019-01-12T09:48:48.056Z,4.50
2019-01-12T09:51:16.458Z,4.50
2019-01-12T09:53:45.106Z,4.50
2019-01-12T09:56:13.553Z,4.60
2019-01-12T09:58:42.320Z,4.60
2019-01-12T10:01:10.802Z,4.60
2019-01-12T10:03:39.443Z,4.60
2019-01-12T10:06:07.837Z,4.70
2019-01-12T10:08:36.237Z,4.70
2019-01-12T10:11:04.703Z,4.80
2019-01-12T10:13:33.102Z,4.80
2019-01-12T10:16:01.731Z,4.80
2019-01-12T10:18:30.132Z,4.80
2019-01-12T10:20:58.536Z,4.80
2019-01-12T10:23:26.921Z,4.80
2019-01-12T10:25:55.330Z,4.80
2019-01-12T10:28:23.717Z,4.80
2019-01-12T10:30:52.117Z,4.80
2019-01-12T10:33:20.630Z,4.80
2019-01-12T10:35:49.018Z,4.90
2019-01-12T10:38:17.803Z,5.00
2019-01-12T10:40:46.194Z,4.90
2019-01-12T10:43:14.596Z,5.00
2019-01-12T10:45:42.990Z,4.90
2019-01-12T10:48:11.403Z,4.90
2019-01-12T10:50:40.116Z,4.90
2019-01-12T10:53:08.566Z,4.90
2019-01-12T10:55:36.958Z,4.90
2019-01-12T10:58:05.434Z,4.90
2019-01-12T11:00:35.067Z,4.80
2019-01-12T11:03:03.792Z,4.80
2019-01-12T11:05:32.286Z,4.90
2019-01-12T11:08:00.682Z,4.90
2019-01-12T11:10:29.135Z,4.80
2019-01-12T11:12:57.529Z,4.90
2019-01-12T11:15:25.926Z,4.90
2019-01-12T11:17:54.391Z,4.90
2019-01-12T11:20:22.789Z,4.90
2019-01-12T11:22:51.265Z,4.90
2019-01-12T11:25:19.665Z,4.90
2019-01-12T11:27:48.053Z,5.00
2019-01-12T11:30:19.142Z,5.00
2019-01-12T11:32:48.431Z,5.00
2019-01-12T11:35:16.898Z,5.00
2019-01-12T11:37:45.526Z,5.00
2019-01-12T11:40:18.973Z,5.00
2019-01-12T11:42:48.110Z,5.00
2019-01-12T11:45:16.569Z,5.00
2019-01-12T11:47:45.369Z,5.00
2019-01-12T11:50:15.318Z,5.00
2019-01-12T11:52:44.694Z,5.00
2019-01-12T11:55:14.636Z,5.00
2019-01-12T11:57:43.036Z,5.00
2019-01-12T12:00:14.742Z,5.10
2019-01-12T12:02:43.375Z,5.10
2019-01-12T12:05:11.946Z,5.20
2019-01-12T12:07:40.582Z,5.10
2019-01-12T12:10:11.541Z,5.10
2019-01-12T12:12:39.941Z,5.20
2019-01-12T12:15:11.761Z,5.10
2019-01-12T12:17:40.823Z,5.10
2019-01-12T12:20:20.719Z,5.10
2019-01-12T12:22:49.307Z,5.00
2019-01-12T12:25:18.133Z,5.00
2019-01-12T12:27:46.611Z,4.90
2019-01-12T12:30:26.658Z,5.00
2019-01-12T12:32:55.432Z,5.00
2019-01-12T12:35:37.719Z,5.00
2019-01-12T12:38:01.901Z,5.00
2019-01-12T12:40:30.350Z,5.00
2019-01-12T12:42:58.986Z,5.00
2019-01-12T12:45:29.774Z,4.90
2019-01-12T12:47:58.177Z,4.90
2019-01-12T12:50:26.806Z,4.90
2019-01-12T12:52:55.298Z,4.90
2019-01-12T12:55:23.700Z,4.90
2019-01-12T12:57:52.334Z,4.90
2019-01-12T13:00:23.322Z,4.90
2019-01-12T13:02:51.779Z,4.80
2019-01-12T13:05:20.603Z,4.80
2019-01-12T13:07:49.014Z,4.80
2019-01-12T13:10:25.669Z,4.80
2019-01-12T13:12:54.254Z,4.70
2019-01-12T13:15:22.761Z,4.70
2019-01-12T13:17:51.178Z,4.70
2019-01-12T13:20:20.762Z,4.70
2019-01-12T13:22:49.689Z,4.70
2019-01-12T13:25:18.528Z,4.70
2019-01-12T13:27:47.417Z,4.70
2019-01-12T13:30:18.458Z,4.70
2019-01-12T13:32:46.990Z,4.70
2019-01-12T13:35:15.639Z,4.70
2019-01-12T13:37:44.049Z,4.70
2019-01-12T13:40:18.257Z,4.70
2019-01-12T13:42:46.653Z,4.60
2019-01-12T13:45:17.391Z,4.70
2019-01-12T13:47:46.544Z,4.70
2019-01-12T13:50:18.117Z,4.60
2019-01-12T13:52:46.763Z,4.60
2019-01-12T13:55:16.214Z,4.70
2019-01-12T13:57:47.924Z,4.70
2019-01-12T14:00:20.602Z,4.60
2019-01-12T14:02:49.324Z,4.60
2019-01-12T14:05:17.726Z,4.70
2019-01-12T14:07:46.127Z,4.70
2019-01-12T14:10:17.768Z,4.70
2019-01-12T14:12:46.218Z,4.70
2019-01-12T14:15:17.098Z,4.70
2019-01-12T14:17:45.579Z,4.70
2019-01-12T14:20:28.560Z,4.70
2019-01-12T14:22:58.186Z,4.80
2019-01-12T14:25:27.183Z,4.80
2019-01-12T14:27:55.917Z,4.80
2019-01-12T14:30:24.391Z,4.80
2019-01-12T14:32:52.784Z,4.90
2019-01-12T14:35:21.580Z,4.90
2019-01-12T14:37:50.114Z,4.90
2019-01-12T14:40:20.540Z,5.00
2019-01-12T14:42:49.289Z,4.90
2019-01-12T14:45:20.699Z,5.00
2019-01-12T14:47:49.460Z,5.00
2019-01-12T14:50:17.870Z,5.00
2019-01-12T14:52:46.362Z,5.00
2019-01-12T14:55:17.102Z,5.00
2019-01-12T14:57:45.565Z,5.10
2019-01-12T15:00:16.615Z,5.00
2019-01-12T15:02:45.067Z,5.00
2019-01-12T15:05:15.831Z,5.10
2019-01-12T15:07:44.798Z,5.10
2019-01-12T15:10:15.920Z,5.10
2019-01-12T15:12:44.391Z,5.10
2019-01-12T15:15:14.728Z,5.10
2019-01-12T15:17:43.114Z,5.10
2019-01-12T15:20:20.700Z,5.10
2019-01-12T15:22:49.180Z,5.10
2019-01-12T15:25:17.641Z,5.10
2019-01-12T15:27:46.279Z,5.00
2019-01-12T15:30:17.611Z,5.10
2019-01-12T15:32:46.221Z,5.00
2019-01-12T15:35:15.705Z,5.00
2019-01-12T15:37:45.127Z,5.00
2019-01-12T15:40:15.796Z,5.00
2019-01-12T15:42:44.187Z,5.00
2019-01-12T15:45:15.306Z,5.00
2019-01-12T15:47:43.872Z,5.00
2019-01-12T15:50:15.367Z,5.00
2019-01-12T15:52:44.065Z,5.00
2019-01-12T15:55:12.485Z,5.00
2019-01-12T15:57:41.198Z,5.00
2019-01-12T16:00:15.235Z,5.00
2019-01-12T16:02:48.093Z,5.00
2019-01-12T16:05:18.537Z,5.00
2019-01-12T16:07:49.628Z,5.00
2019-01-12T16:10:18.025Z,5.00
2019-01-12T16:12:46.437Z,5.00
2019-01-12T16:15:19.885Z,5.00
2019-01-12T16:17:50.275Z,5.00
2019-01-12T16:20:21.682Z,5.00
2019-01-12T16:22:50.093Z,5.00
2019-01-12T16:25:18.805Z,5.00
2019-01-12T16:27:47.192Z,5.00
2019-01-12T16:30:17.726Z,5.00
2019-01-12T16:32:46.129Z,5.10
2019-01-12T16:35:14.765Z,5.10
2019-01-12T16:37:43.666Z,5.00
2019-01-12T16:40:15.413Z,5.00
2019-01-12T16:42:43.882Z,5.10
2019-01-12T16:45:12.746Z,5.10
2019-01-12T16:47:41.383Z,5.10
2019-01-12T16:50:10.087Z,5.20
2019-01-12T16:52:38.667Z,5.10
2019-01-12T16:55:10.980Z,5.20
2019-01-12T16:57:39.633Z,5.20
2019-01-12T17:00:14.058Z,5.30
2019-01-12T17:02:42.703Z,5.30
2019-01-12T17:05:11.098Z,5.30
2019-01-12T17:07:39.494Z,5.40
2019-01-12T17:10:15.811Z,5.40
2019-01-12T17:12:44.527Z,5.50
2019-01-12T17:15:15.057Z,5.50
2019-01-12T17:17:43.441Z,5.50
2019-01-12T17:20:14.964Z,5.60
2019-01-12T17:22:44.034Z,5.60
2019-01-12T17:25:12.504Z,5.60
2019-01-12T17:27:40.889Z,5.70
2019-01-12T17:30:12.588Z,5.80
2019-01-12T17:32:41.001Z,5.90
2019-01-12T17:35:11.072Z,5.90
2019-01-12T17:37:46.519Z,5.90
2019-01-12T17:40:16.262Z,6.00
2019-01-12T17:42:44.906Z,6.00
2019-01-12T17:45:16.555Z,6.00
2019-01-12T17:47:45.179Z,6.00
2019-01-12T17:50:16.169Z,6.00
2019-01-12T17:52:44.798Z,6.00
2019-01-12T17:55:24.062Z,6.00
2019-01-12T17:57:52.526Z,6.00
2019-01-12T18:00:30.946Z,6.00
2019-01-12T18:02:59.673Z,6.00
2019-01-12T18:05:30.045Z,6.00
2019-01-12T18:07:58.450Z,6.00
2019-01-12T18:10:26.829Z,6.00
2019-01-12T18:12:55.221Z,6.00
2019-01-12T18:15:23.862Z,6.00
2019-01-12T18:17:52.246Z,6.10
2019-01-12T18:20:20.890Z,6.10
2019-01-12T18:22:49.519Z,6.10
2019-01-12T18:25:17.916Z,6.10
2019-01-12T18:27:46.297Z,6.10
2019-01-12T18:30:20.381Z,6.00
2019-01-12T18:32:48.765Z,6.00
2019-01-12T18:35:17.237Z,6.10
2019-01-12T18:37:45.636Z,6.10
2019-01-12T18:40:16.374Z,6.10
2019-01-12T18:42:44.992Z,6.10
2019-01-12T18:45:15.539Z,6.00
2019-01-12T18:47:43.933Z,6.10
2019-01-12T18:50:15.438Z,6.10
2019-01-12T18:52:43.830Z,6.10
2019-01-12T18:55:13.575Z,6.10
2019-01-12T18:57:42.212Z,6.10
2019-01-12T19:00:18.525Z,6.10
2019-01-12T19:02:44.911Z,6.10
2019-01-12T19:05:13.461Z,6.10
2019-01-12T19:07:42.082Z,6.10
2019-01-12T19:10:12.821Z,6.10
2019-01-12T19:12:41.526Z,6.10
2019-01-12T19:15:13.039Z,6.10
2019-01-12T19:17:41.450Z,6.10
2019-01-12T19:20:10.305Z,6.20
2019-01-12T19:22:39.031Z,6.10
2019-01-12T19:25:10.261Z,6.10
2019-01-12T19:27:38.658Z,6.10
2019-01-12T19:30:15.404Z,6.10
2019-01-12T19:32:44.061Z,6.00
2019-01-12T19:35:13.578Z,6.00
2019-01-12T19:37:42.221Z,6.00
2019-01-12T19:40:15.997Z,5.90
2019-01-12T19:42:44.649Z,5.80
2019-01-12T19:45:14.781Z,5.80
2019-01-12T19:47:43.492Z,5.80
2019-01-12T19:50:20.410Z,5.70
2019-01-12T19:52:48.814Z,5.70
2019-01-12T19:55:17.280Z,5.60
2019-01-12T19:57:45.966Z,5.60
2019-01-12T20:00:17.156Z,5.50
2019-01-12T20:02:45.737Z,5.40
2019-01-12T20:05:14.221Z,5.40
2019-01-12T20:07:42.622Z,5.40
2019-01-12T20:10:13.675Z,5.40
2019-01-12T20:12:42.068Z,5.40
2019-01-12T20:15:14.058Z,5.40
2019-01-12T20:17:42.459Z,5.40
2019-01-12T20:20:13.518Z,5.40
2019-01-12T20:22:42.044Z,5.30
2019-01-12T20:25:13.611Z,5.40
2019-01-12T20:27:41.995Z,5.30
2019-01-12T20:30:16.063Z,5.40
2019-01-12T20:32:50.325Z,5.30
2019-01-12T20:35:30.933Z,5.30
2019-01-12T20:38:05.108Z,5.30
2019-01-12T20:40:48.562Z,5.30
2019-01-12T20:43:28.102Z,5.30
2019-01-12T20:46:11.605Z,5.40
2019-01-12T20:48:49.109Z,5.30
2019-01-12T20:51:38.326Z,5.30
2019-01-12T20:54:32.058Z,5.30
2019-01-12T20:57:03.522Z,5.30
2019-01-12T20:59:34.994Z,5.30
2019-01-12T21:02:06.462Z,5.30
2019-01-12T21:04:45.728Z,5.30
2019-01-12T21:07:23.161Z,5.30
2019-01-12T21:10:18.853Z,5.40
2019-01-12T21:13:09.733Z,5.40
2019-01-12T21:15:42.158Z,5.50
2019-01-12T21:18:10.819Z,5.40
2019-01-12T21:20:39.218Z,5.50
2019-01-12T21:23:08.002Z,5.60
2019-01-12T21:25:36.408Z,5.60
2019-01-12T21:28:04.811Z,5.60
2019-01-12T21:30:33.192Z,5.60
2019-01-12T21:33:01.858Z,5.60
2019-01-12T21:35:30.254Z,5.60
2019-01-12T21:37:58.882Z,5.60
2019-01-12T21:40:27.281Z,5.70
2019-01-12T21:42:55.678Z,5.70
2019-01-12T21:45:24.117Z,5.70
2019-01-12T21:47:52.511Z,5.70
2019-01-12T21:50:20.918Z,5.70
2019-01-12T21:52:49.317Z,5.60
2019-01-12T21:55:17.728Z,5.60
2019-01-12T21:57:46.131Z,5.70
2019-01-12T22:00:18.436Z,5.70
2019-01-12T22:02:46.848Z,5.70
2019-01-12T22:05:15.554Z,5.70
2019-01-12T22:07:44.918Z,5.80
2019-01-12T22:10:19.298Z,5.70
2019-01-12T22:12:45.958Z,5.70
2019-01-12T22:15:15.842Z,5.70
2019-01-12T22:17:44.305Z,5.80
2019-01-12T22:20:15.257Z,5.80
2019-01-12T22:22:44.093Z,5.80
2019-01-12T22:25:12.722Z,5.80
2019-01-12T22:27:43.036Z,5.80
2019-01-12T22:30:16.672Z,5.80
2019-01-12T22:32:45.131Z,5.80
2019-01-12T22:35:13.546Z,5.80
2019-01-12T22:37:41.993Z,5.80
2019-01-12T22:40:19.187Z,5.70
2019-01-12T22:42:48.045Z,5.80
2019-01-12T22:45:16.759Z,5.70
2019-01-12T22:47:45.399Z,5.80
2019-01-12T22:50:15.787Z,5.70
2019-01-12T22:52:45.522Z,5.80
2019-01-12T22:55:14.443Z,5.70
2019-01-12T22:57:42.980Z,5.70
2019-01-12T23:00:34.238Z,5.70
2019-01-12T23:03:04.703Z,5.70
2019-01-12T23:05:33.337Z,5.70
2019-01-12T23:08:04.577Z,5.70
2019-01-12T23:10:32.997Z,5.80
2019-01-12T23:13:01.701Z,5.70
2019-01-12T23:15:30.187Z,5.70
2019-01-12T23:17:58.657Z,5.70
2019-01-12T23:20:27.382Z,5.80
2019-01-12T23:22:56.878Z,5.70
2019-01-12T23:25:25.474Z,5.60
2019-01-12T23:27:53.949Z,5.70
2019-01-12T23:30:22.405Z,5.60
2019-01-12T23:32:50.825Z,5.70
2019-01-12T23:35:19.213Z,5.70
2019-01-12T23:37:47.694Z,5.80
2019-01-12T23:40:16.550Z,5.80
2019-01-12T23:42:45.025Z,5.80
2019-01-12T23:45:14.697Z,5.90
2019-01-12T23:47:43.102Z,5.80
2019-01-12T23:50:13.140Z,5.80
2019-01-12T23:52:41.690Z,5.80
2019-01-12T23:55:10.359Z,5.80
2019-01-12T23:57:39.289Z,5.80
